createdAt,value
2022-10-22T00:00:11.398Z,11.93
2022-10-22T00:02:38.710Z,11.13
2022-10-22T00:05:06.201Z,12.13
2022-10-22T00:07:33.453Z,11.63
2022-10-22T00:10:00.524Z,11.52
2022-10-22T00:12:27.754Z,10.77
2022-10-22T00:14:54.612Z,11.48
2022-10-22T00:17:21.723Z,10.23
2022-10-22T00:19:48.670Z,10.48
2022-10-22T00:22:15.871Z,11.50
2022-10-22T00:24:43.320Z,11.38
2022-10-22T00:27:12.414Z,12.05
2022-10-22T00:29:39.430Z,11.07
2022-10-22T00:32:06.888Z,11.07
2022-10-22T00:34:33.896Z,11.57
2022-10-22T00:37:01.252Z,11.82
2022-10-22T00:39:28.886Z,12.20
2022-10-22T00:41:57.255Z,11.27
2022-10-22T00:45:01.211Z,11.82
2022-10-22T00:47:31.936Z,13.45
2022-10-22T00:50:00.394Z,11.98
2022-10-22T00:52:27.694Z,11.57
2022-10-22T00:54:54.956Z,12.00
2022-10-22T00:57:22.897Z,12.63
2022-10-22T00:59:50.269Z,11.43
2022-10-22T01:02:17.491Z,11.38
2022-10-22T01:04:45.371Z,11.70
2022-10-22T01:07:21.362Z,10.93
2022-10-22T01:10:23.692Z,11.55
2022-10-22T01:12:50.771Z,11.98
2022-10-22T01:16:03.630Z,10.77
2022-10-22T01:18:55.538Z,10.90
2022-10-22T01:21:31.140Z,10.53
2022-10-22T01:24:49.816Z,10.75
2022-10-22T01:27:40.060Z,11.30
2022-10-22T01:30:09.316Z,10.68
2022-10-22T01:33:01.888Z,11.48
2022-10-22T01:35:35.875Z,10.73
2022-10-22T01:38:07.654Z,11.35
2022-10-22T01:40:35.920Z,10.98
2022-10-22T01:43:06.072Z,10.80
2022-10-22T01:45:47.257Z,11.18
2022-10-22T01:48:35.633Z,10.83
2022-10-22T01:51:34.351Z,10.00
2022-10-22T01:54:27.773Z,10.10
2022-10-22T01:56:54.603Z,10.73
2022-10-22T01:59:52.251Z,10.48
2022-10-22T02:02:25.037Z,9.07
2022-10-22T02:05:02.252Z,8.95
2022-10-22T02:07:33.198Z,9.70
2022-10-22T02:10:01.007Z,10.38
2022-10-22T02:12:31.332Z,9.50
2022-10-22T02:15:00.883Z,8.60
2022-10-22T02:17:32.216Z,8.65
2022-10-22T02:20:09.013Z,9.57
2022-10-22T02:22:36.075Z,8.85
2022-10-22T02:25:04.365Z,8.30
2022-10-22T02:27:45.578Z,7.50
2022-10-22T02:30:18.957Z,9.73
2022-10-22T02:33:03.958Z,8.75
2022-10-22T02:35:31.888Z,9.88
2022-10-22T02:37:59.919Z,8.27
2022-10-22T02:40:28.885Z,8.63
2022-10-22T02:42:55.694Z,8.27
2022-10-22T02:45:22.951Z,9.05
2022-10-22T02:47:50.513Z,9.15
2022-10-22T02:50:17.733Z,9.20
2022-10-22T02:52:44.519Z,8.20
2022-10-22T02:55:11.675Z,8.50
2022-10-22T02:57:38.915Z,9.40
2022-10-22T03:00:07.918Z,8.38
2022-10-22T03:02:35.338Z,8.52
2022-10-22T03:05:02.478Z,10.87
2022-10-22T03:07:29.257Z,9.60
2022-10-22T03:09:56.129Z,9.40
2022-10-22T03:12:23.013Z,9.50
2022-10-22T03:14:49.766Z,8.75
2022-10-22T03:17:16.853Z,8.50
2022-10-22T03:19:43.695Z,8.88
2022-10-22T03:22:15.431Z,9.32
2022-10-22T03:24:46.474Z,9.73
2022-10-22T03:27:16.962Z,9.50
2022-10-22T03:29:44.431Z,9.97
2022-10-22T03:32:11.719Z,9.15
2022-10-22T03:34:38.474Z,10.18
2022-10-22T03:37:05.216Z,10.38
2022-10-22T03:39:34.671Z,9.23
2022-10-22T03:42:02.339Z,8.47
2022-10-22T03:44:30.538Z,9.23
2022-10-22T03:47:01.632Z,9.20
2022-10-22T03:49:29.572Z,9.05
2022-10-22T03:51:56.457Z,10.02
2022-10-22T03:54:23.715Z,9.63
2022-10-22T03:56:50.509Z,8.68
2022-10-22T03:59:17.324Z,9.07
2022-10-22T04:01:44.250Z,8.57
2022-10-22T04:04:10.937Z,8.35
2022-10-22T04:06:37.635Z,9.03
2022-10-22T04:09:04.995Z,8.65
2022-10-22T04:11:31.960Z,9.93
2022-10-22T04:13:58.775Z,8.73
2022-10-22T04:16:28.705Z,8.57
2022-10-22T04:18:58.154Z,8.70
2022-10-22T04:21:25.016Z,8.73
2022-10-22T04:23:53.117Z,8.65
2022-10-22T04:26:20.775Z,9.18
2022-10-22T04:28:49.078Z,8.40
2022-10-22T04:31:19.606Z,9.13
2022-10-22T04:33:46.877Z,8.65
2022-10-22T04:36:18.615Z,8.93
2022-10-22T04:38:47.762Z,9.18
2022-10-22T04:41:19.793Z,8.65
2022-10-22T04:43:47.292Z,8.70
2022-10-22T04:46:16.537Z,9.68
2022-10-22T04:48:44.909Z,8.07
2022-10-22T04:51:17.781Z,9.07
2022-10-22T04:53:45.910Z,19.20
2022-10-22T04:56:19.959Z,13.47
2022-10-22T04:58:48.716Z,9.23
2022-10-22T05:01:41.623Z,10.68
2022-10-22T05:04:13.716Z,14.02
2022-10-22T05:06:40.892Z,9.82
2022-10-22T05:09:14.187Z,9.33
2022-10-22T05:11:43.333Z,9.60
2022-10-22T05:14:11.277Z,10.00
2022-10-22T05:16:38.743Z,9.40
2022-10-22T05:19:06.674Z,8.95
2022-10-22T05:21:33.964Z,8.70
2022-10-22T05:24:01.284Z,9.13
2022-10-22T05:26:29.274Z,10.05
2022-10-22T05:28:56.322Z,10.00
2022-10-22T05:31:23.232Z,8.85
2022-10-22T05:33:50.153Z,8.90
2022-10-22T05:36:19.955Z,9.30
2022-10-22T05:38:47.321Z,7.93
2022-10-22T05:41:22.674Z,9.05
2022-10-22T05:43:50.236Z,8.35
2022-10-22T05:46:23.138Z,9.03
2022-10-22T05:48:55.167Z,12.15
2022-10-22T05:51:23.332Z,10.40
2022-10-22T05:53:59.533Z,12.13
2022-10-22T05:56:28.000Z,9.30
2022-10-22T05:58:55.241Z,9.67
2022-10-22T06:01:33.597Z,8.25
2022-10-22T06:04:03.171Z,8.52
2022-10-22T06:06:34.457Z,9.50
2022-10-22T06:09:18.597Z,10.07
2022-10-22T06:11:46.166Z,11.87
2022-10-22T06:14:13.484Z,11.60
2022-10-22T06:16:40.485Z,11.25
2022-10-22T06:19:08.333Z,11.50
2022-10-22T06:21:35.592Z,9.90
2022-10-22T06:24:02.490Z,10.37
2022-10-22T06:26:30.294Z,10.73
2022-10-22T06:28:57.658Z,10.40
2022-10-22T06:31:25.795Z,11.50
2022-10-22T06:33:52.791Z,11.52
2022-10-22T06:36:22.281Z,9.87
2022-10-22T06:38:52.912Z,12.43
2022-10-22T06:41:22.162Z,14.30
2022-10-22T06:43:51.430Z,11.95
2022-10-22T06:46:21.814Z,10.73
2022-10-22T06:49:12.155Z,10.67
2022-10-22T06:51:39.179Z,11.07
2022-10-22T06:54:06.070Z,10.25
2022-10-22T06:56:32.926Z,14.18
2022-10-22T06:58:59.976Z,12.45
2022-10-22T07:01:31.322Z,11.30
2022-10-22T07:03:58.412Z,10.93
2022-10-22T07:06:26.399Z,11.18
2022-10-22T07:08:54.747Z,11.93
2022-10-22T07:11:24.932Z,12.77
2022-10-22T07:13:54.517Z,10.40
2022-10-22T07:16:21.645Z,11.18
2022-10-22T07:18:49.046Z,10.40
2022-10-22T07:21:18.657Z,10.43
2022-10-22T07:23:45.573Z,12.27
2022-10-22T07:26:14.246Z,10.53
2022-10-22T07:28:41.553Z,10.73
2022-10-22T07:31:10.358Z,11.75
2022-10-22T07:33:38.320Z,11.80
2022-10-22T07:36:08.113Z,10.82
2022-10-22T07:38:35.958Z,10.30
2022-10-22T07:41:03.124Z,12.25
2022-10-22T07:43:30.356Z,11.73
2022-10-22T07:45:57.082Z,11.35
2022-10-22T07:48:25.036Z,12.68
2022-10-22T07:50:52.578Z,12.17
2022-10-22T07:53:19.436Z,12.02
2022-10-22T07:55:49.084Z,12.18
2022-10-22T07:58:16.916Z,13.07
2022-10-22T08:00:43.797Z,12.68
2022-10-22T08:03:14.211Z,12.60
2022-10-22T08:05:41.533Z,12.75
2022-10-22T08:08:08.273Z,13.80
2022-10-22T08:10:34.991Z,11.60
2022-10-22T08:13:02.162Z,11.60
2022-10-22T08:15:29.434Z,12.57
2022-10-22T08:17:56.365Z,12.52
2022-10-22T08:20:23.486Z,12.57
2022-10-22T08:22:50.272Z,11.30
2022-10-22T08:25:17.282Z,11.38
2022-10-22T08:27:45.973Z,11.47
2022-10-22T08:30:13.894Z,11.27
2022-10-22T08:32:41.555Z,11.18
2022-10-22T08:35:08.984Z,11.32
2022-10-22T08:37:36.272Z,12.15
2022-10-22T08:40:04.929Z,10.07
2022-10-22T08:43:02.572Z,11.43
2022-10-22T08:45:57.645Z,11.02
2022-10-22T08:48:41.853Z,11.00
2022-10-22T08:51:13.171Z,11.10
2022-10-22T08:53:51.476Z,10.30
2022-10-22T08:56:18.638Z,11.10
2022-10-22T08:58:58.873Z,10.82
2022-10-22T09:01:35.393Z,10.13
2022-10-22T09:04:17.372Z,10.77
2022-10-22T09:06:44.112Z,11.67
2022-10-22T09:09:15.862Z,11.65
2022-10-22T09:11:47.342Z,11.10
2022-10-22T09:14:22.653Z,11.23
2022-10-22T09:17:02.966Z,10.35
2022-10-22T09:19:38.772Z,9.60
2022-10-22T09:22:32.854Z,10.00
2022-10-22T09:25:12.918Z,10.27
2022-10-22T09:27:40.324Z,10.10
2022-10-22T09:30:11.590Z,10.13
2022-10-22T09:32:38.435Z,10.97
2022-10-22T09:35:11.297Z,10.80
2022-10-22T09:37:49.031Z,10.10
2022-10-22T09:40:17.073Z,9.35
2022-10-22T09:42:45.796Z,9.95
2022-10-22T09:45:21.117Z,9.97
2022-10-22T09:48:03.739Z,9.77
2022-10-22T09:50:45.813Z,9.43
2022-10-22T09:53:22.418Z,9.80
2022-10-22T09:58:23.591Z,9.97
2022-10-22T10:01:00.637Z,8.77
2022-10-22T10:03:31.679Z,10.02
2022-10-22T10:06:03.276Z,9.02
2022-10-22T10:08:33.737Z,9.13
2022-10-22T10:11:06.755Z,7.77
2022-10-22T10:13:54.591Z,8.80
2022-10-22T10:17:03.113Z,9.05
2022-10-22T10:19:51.255Z,9.23
2022-10-22T10:22:29.996Z,8.88
2022-10-22T10:25:27.729Z,8.17
2022-10-22T10:28:07.917Z,9.10
2022-10-22T10:30:43.935Z,9.02
2022-10-22T10:33:21.894Z,8.30
2022-10-22T10:36:10.012Z,8.73
2022-10-22T10:39:06.754Z,8.97
2022-10-22T10:41:59.038Z,8.10
2022-10-22T10:44:56.807Z,8.93
2022-10-22T10:47:39.221Z,9.07
2022-10-22T10:50:35.315Z,9.05
2022-10-22T10:53:28.236Z,8.90
2022-10-22T10:56:25.233Z,8.35
2022-10-22T10:59:12.437Z,8.38
2022-10-22T11:01:57.830Z,9.27
2022-10-22T11:04:34.097Z,8.38
2022-10-22T11:07:11.428Z,9.47
2022-10-22T11:10:02.892Z,9.48
2022-10-22T11:12:36.139Z,8.93
2022-10-22T11:15:13.818Z,9.38
2022-10-22T11:17:45.695Z,9.05
2022-10-22T11:20:35.518Z,9.70
2022-10-22T11:23:24.760Z,9.60
2022-10-22T11:25:52.115Z,9.50
2022-10-22T11:28:43.630Z,8.95
2022-10-22T11:31:14.801Z,8.73
2022-10-22T11:33:57.340Z,8.63
2022-10-22T11:36:33.403Z,9.40
2022-10-22T11:39:03.133Z,9.48
2022-10-22T11:41:32.914Z,9.27
2022-10-22T11:44:20.957Z,8.90
2022-10-22T11:46:53.458Z,8.27
2022-10-22T11:49:25.514Z,8.48
2022-10-22T11:52:05.474Z,9.38
2022-10-22T11:54:32.734Z,8.60
2022-10-22T11:57:21.693Z,7.72
2022-10-22T11:59:52.096Z,8.93
2022-10-22T12:02:37.586Z,8.93
2022-10-22T12:05:22.730Z,8.38
2022-10-22T12:08:01.395Z,8.20
2022-10-22T12:10:35.531Z,7.90
2022-10-22T12:13:12.238Z,8.53
2022-10-22T12:15:49.273Z,8.57
2022-10-22T12:18:16.967Z,8.50
2022-10-22T12:20:44.071Z,8.98
2022-10-22T12:23:12.856Z,8.13
2022-10-22T12:25:39.714Z,7.87
2022-10-22T12:28:12.053Z,7.95
2022-10-22T12:30:39.396Z,9.10
2022-10-22T12:33:08.271Z,7.93
2022-10-22T12:35:43.990Z,8.90
2022-10-22T12:38:19.891Z,8.40
2022-10-22T12:40:48.902Z,9.88
2022-10-22T12:43:37.357Z,8.80
2022-10-22T12:46:04.619Z,8.38
2022-10-22T12:48:36.207Z,8.70
2022-10-22T12:51:05.337Z,8.30
2022-10-22T12:53:35.647Z,8.00
2022-10-22T12:56:05.394Z,8.43
2022-10-22T12:58:59.069Z,9.27
2022-10-22T13:01:29.477Z,8.65
2022-10-22T13:04:27.523Z,8.37
2022-10-22T13:07:19.901Z,9.13
2022-10-22T13:10:15.766Z,8.95
2022-10-22T13:12:48.951Z,8.30
2022-10-22T13:15:29.716Z,8.98
2022-10-22T13:18:07.791Z,8.70
2022-10-22T13:20:34.958Z,8.02
2022-10-22T13:23:04.112Z,8.80
2022-10-22T13:25:33.579Z,8.30
2022-10-22T13:28:18.652Z,8.38
2022-10-22T13:31:08.483Z,7.87
2022-10-22T13:33:41.212Z,8.35
2022-10-22T13:36:14.100Z,8.02
2022-10-22T13:38:41.173Z,8.18
2022-10-22T13:41:27.872Z,9.65
2022-10-22T13:43:55.370Z,8.90
2022-10-22T13:46:23.681Z,9.07
2022-10-22T13:48:53.133Z,8.65
2022-10-22T13:51:41.572Z,9.73
2022-10-22T13:54:21.416Z,9.95
2022-10-22T13:56:48.396Z,10.03
2022-10-22T13:59:17.239Z,9.50
2022-10-22T14:01:47.120Z,10.43
2022-10-22T14:04:14.231Z,10.20
2022-10-22T14:06:41.056Z,10.25
2022-10-22T14:09:14.308Z,10.93
2022-10-22T14:11:41.230Z,9.57
2022-10-22T14:14:07.954Z,10.65
2022-10-22T14:16:36.363Z,9.07
2022-10-22T14:19:07.809Z,9.55
2022-10-22T14:21:37.393Z,9.43
2022-10-22T14:24:06.180Z,9.00
2022-10-22T14:26:35.371Z,9.93
2022-10-22T14:29:11.353Z,10.68
2022-10-22T14:31:51.679Z,9.00
2022-10-22T14:34:21.792Z,8.93
2022-10-22T14:36:48.670Z,9.88
2022-10-22T14:39:15.612Z,10.75
2022-10-22T14:41:46.670Z,10.77
2022-10-22T14:44:17.765Z,10.80
2022-10-22T14:46:47.894Z,9.73
2022-10-22T14:49:14.754Z,9.98
2022-10-22T14:51:41.794Z,10.15
2022-10-22T14:54:08.880Z,9.40
2022-10-22T14:59:02.434Z,9.60
2022-10-22T15:01:29.397Z,9.02
2022-10-22T15:03:56.272Z,9.55
2022-10-22T15:06:23.095Z,8.60
2022-10-22T15:08:50.011Z,9.48
2022-10-22T15:11:17.517Z,9.00
2022-10-22T15:13:44.254Z,8.88
2022-10-22T15:16:15.034Z,8.65
2022-10-22T15:18:42.255Z,8.32
2022-10-22T15:21:15.816Z,9.27
2022-10-22T15:23:42.893Z,9.30
2022-10-22T15:26:10.876Z,11.60
2022-10-22T15:28:38.989Z,14.93
2022-10-22T15:31:07.258Z,18.52
2022-10-22T15:33:34.483Z,16.15
2022-10-22T15:36:14.155Z,15.37
2022-10-22T15:38:40.975Z,15.38
2022-10-22T15:41:08.870Z,13.13
2022-10-22T15:43:36.257Z,12.93
2022-10-22T15:46:18.175Z,11.73
2022-10-22T15:48:45.401Z,11.83
2022-10-22T15:51:16.294Z,10.05
2022-10-22T15:53:44.054Z,10.80
2022-10-22T15:56:11.733Z,10.00
2022-10-22T15:58:39.997Z,8.93
2022-10-22T16:01:11.692Z,8.97
2022-10-22T16:03:39.071Z,8.45
2022-10-22T16:06:07.452Z,9.13
2022-10-22T16:08:34.467Z,8.63
2022-10-22T16:11:01.597Z,8.05
2022-10-22T16:13:28.389Z,8.93
2022-10-22T16:15:55.365Z,8.25
2022-10-22T16:18:22.595Z,8.90
2022-10-22T16:20:49.597Z,8.02
2022-10-22T16:23:16.409Z,8.85
2022-10-22T16:25:43.715Z,8.87
2022-10-22T16:28:11.717Z,8.05
2022-10-22T16:30:39.051Z,8.50
2022-10-22T16:33:07.495Z,7.93
2022-10-22T16:35:34.474Z,8.15
2022-10-22T16:38:01.254Z,7.73
2022-10-22T16:40:28.406Z,8.00
2022-10-22T16:42:55.136Z,8.57
2022-10-22T16:45:21.933Z,8.23
2022-10-22T16:47:49.294Z,8.15
2022-10-22T16:50:16.313Z,7.33
2022-10-22T16:52:43.078Z,7.32
2022-10-22T16:55:10.272Z,7.70
2022-10-22T16:57:37.194Z,7.43
2022-10-22T17:00:05.937Z,8.23
2022-10-22T17:02:32.957Z,9.77
2022-10-22T17:04:59.695Z,12.75
2022-10-22T17:07:26.406Z,27.95
2022-10-22T17:09:53.296Z,23.98
2022-10-22T17:12:20.118Z,28.65
2022-10-22T17:14:46.998Z,26.70
2022-10-22T17:17:13.931Z,23.55
2022-10-22T17:19:40.632Z,17.67
2022-10-22T17:22:07.412Z,14.65
2022-10-22T17:24:34.312Z,17.52
2022-10-22T17:27:01.420Z,12.90
2022-10-22T17:29:28.277Z,13.88
2022-10-22T17:31:55.070Z,13.07
2022-10-22T17:34:21.877Z,13.75
2022-10-22T17:36:48.635Z,14.20
2022-10-22T17:39:18.079Z,13.13
2022-10-22T17:41:45.174Z,15.45
2022-10-22T17:44:13.538Z,15.57
2022-10-22T17:46:40.878Z,15.38
2022-10-22T17:49:15.292Z,14.63
2022-10-22T17:51:42.353Z,13.50
2022-10-22T17:54:10.236Z,13.73
2022-10-22T17:56:37.336Z,13.07
2022-10-22T17:59:04.505Z,14.07
2022-10-22T18:01:34.581Z,14.65
2022-10-22T18:04:07.399Z,20.40
2022-10-22T18:06:37.164Z,13.98
2022-10-22T18:09:10.725Z,13.85
2022-10-22T18:11:39.255Z,13.73
2022-10-22T18:14:06.402Z,13.52
2022-10-22T18:16:33.325Z,15.47
2022-10-22T18:19:00.970Z,11.95
2022-10-22T18:21:30.209Z,11.55
2022-10-22T18:23:59.155Z,12.40
2022-10-22T18:26:27.047Z,9.95
2022-10-22T18:28:54.766Z,9.63
2022-10-22T18:31:23.938Z,10.00
2022-10-22T18:33:51.017Z,9.30
2022-10-22T18:36:21.339Z,16.25
2022-10-22T18:38:56.419Z,16.83
2022-10-22T18:41:23.894Z,13.40
2022-10-22T18:43:56.174Z,11.95
2022-10-22T18:46:23.937Z,12.32
2022-10-22T18:48:53.368Z,11.30
2022-10-22T18:51:20.940Z,13.85
2022-10-22T18:54:04.522Z,16.77
2022-10-22T18:56:39.755Z,15.73
2022-10-22T18:59:06.754Z,15.32
2022-10-22T19:01:33.633Z,13.85
2022-10-22T19:04:00.577Z,16.73
2022-10-22T19:06:33.320Z,15.83
2022-10-22T19:09:04.487Z,15.40
2022-10-22T19:11:32.084Z,15.45
2022-10-22T19:13:58.874Z,14.30
2022-10-22T19:16:26.257Z,18.02
2022-10-22T19:18:58.878Z,14.27
2022-10-22T19:21:25.757Z,15.75
2022-10-22T19:23:55.550Z,15.60
2022-10-22T19:26:22.376Z,17.45
2022-10-22T19:28:49.257Z,17.23
2022-10-22T19:31:20.159Z,17.77
2022-10-22T19:33:47.326Z,21.73
2022-10-22T19:36:16.879Z,20.60
2022-10-22T19:38:48.933Z,21.60
2022-10-22T19:41:19.070Z,22.05
2022-10-22T19:43:49.393Z,21.50
2022-10-22T19:46:17.799Z,19.67
2022-10-22T19:51:20.285Z,17.73
2022-10-22T19:53:48.612Z,13.77
2022-10-22T19:56:18.997Z,15.43
2022-10-22T19:58:46.575Z,14.38
2022-10-22T20:01:16.118Z,14.68
2022-10-22T20:03:43.040Z,15.18
2022-10-22T20:06:12.215Z,15.45
2022-10-22T20:08:39.371Z,16.07
2022-10-22T20:11:11.830Z,16.55
2022-10-22T20:16:06.963Z,14.50
2022-10-22T20:18:34.275Z,12.65
2022-10-22T20:21:08.779Z,11.90
2022-10-22T20:23:35.593Z,11.90
2022-10-22T20:26:02.359Z,11.70
2022-10-22T20:28:29.455Z,10.82
2022-10-22T20:30:56.432Z,10.98
2022-10-22T20:33:23.526Z,10.53
2022-10-22T20:36:05.837Z,11.80
2022-10-22T20:38:33.190Z,11.52
2022-10-22T20:41:02.361Z,11.52
2022-10-22T20:43:29.258Z,10.80
2022-10-22T20:45:56.249Z,10.73
2022-10-22T20:48:24.376Z,11.73
2022-10-22T20:50:51.196Z,11.40
2022-10-22T20:53:17.994Z,10.82
2022-10-22T20:55:45.094Z,12.27
2022-10-22T20:58:11.998Z,11.73
2022-10-22T21:00:38.887Z,11.65
2022-10-22T21:03:06.712Z,10.57
2022-10-22T21:05:33.889Z,10.40
2022-10-22T21:08:00.837Z,11.48
2022-10-22T21:10:32.387Z,10.10
2022-10-22T21:13:00.125Z,10.05
2022-10-22T21:15:27.153Z,9.68
2022-10-22T21:17:54.242Z,11.07
2022-10-22T21:20:23.889Z,10.40
2022-10-22T21:22:51.619Z,10.30
2022-10-22T21:25:18.492Z,11.05
2022-10-22T21:27:45.477Z,10.07
2022-10-22T21:30:13.212Z,11.15
2022-10-22T21:32:40.269Z,11.45
2022-10-22T21:35:07.859Z,10.93
2022-10-22T21:37:34.655Z,14.40
2022-10-22T21:40:02.270Z,14.02
2022-10-22T21:42:29.353Z,16.70
2022-10-22T21:44:56.147Z,19.45
2022-10-22T21:47:23.243Z,16.70
2022-10-22T21:49:50.210Z,18.52
2022-10-22T21:52:16.912Z,17.23
2022-10-22T21:54:43.957Z,16.55
2022-10-22T21:57:10.757Z,14.90
2022-10-22T21:59:37.514Z,13.97
2022-10-22T22:02:05.929Z,14.75
2022-10-22T22:04:33.405Z,14.85
2022-10-22T22:07:00.250Z,14.00
2022-10-22T22:09:27.165Z,14.55
2022-10-22T22:11:53.949Z,14.60
2022-10-22T22:14:20.726Z,15.23
2022-10-22T22:16:47.596Z,15.15
2022-10-22T22:19:14.516Z,14.27
2022-10-22T22:21:41.873Z,14.35
2022-10-22T22:24:11.513Z,13.90
2022-10-22T22:26:38.438Z,14.55
2022-10-22T22:29:05.954Z,14.52
2022-10-22T22:31:34.413Z,12.70
2022-10-22T22:34:05.432Z,12.98
2022-10-22T22:36:35.216Z,12.87
2022-10-22T22:39:03.481Z,12.25
2022-10-22T22:41:30.639Z,12.52
2022-10-22T22:43:57.558Z,12.65
2022-10-22T22:46:24.314Z,12.60
2022-10-22T22:48:51.898Z,14.30
2022-10-22T22:51:19.014Z,14.20
2022-10-22T22:53:46.271Z,14.25
2022-10-22T22:56:14.850Z,14.85
2022-10-22T22:58:42.356Z,12.63
2022-10-22T23:01:30.877Z,12.67
2022-10-22T23:04:00.052Z,12.77
2022-10-22T23:06:29.798Z,12.95
2022-10-22T23:08:57.962Z,13.32
2022-10-22T23:11:26.230Z,13.10
2022-10-22T23:13:56.197Z,12.90
2022-10-22T23:16:25.772Z,12.65
2022-10-22T23:18:53.833Z,12.18
2022-10-22T23:21:26.517Z,12.05
2022-10-22T23:23:58.793Z,12.57
2022-10-22T23:26:28.632Z,12.70
2022-10-22T23:28:59.598Z,12.38
2022-10-22T23:31:26.996Z,10.75
2022-10-22T23:33:53.932Z,12.32
2022-10-22T23:36:20.931Z,12.00
2022-10-22T23:38:47.996Z,11.47
2022-10-22T23:41:15.123Z,12.45
2022-10-22T23:43:41.969Z,11.55
2022-10-22T23:46:11.678Z,12.80
2022-10-22T23:48:39.430Z,12.10
2022-10-22T23:51:07.140Z,13.43
2022-10-22T23:53:34.157Z,13.75
2022-10-22T23:56:10.291Z,14.98
2022-10-22T23:58:37.513Z,12.48
